sensor_id;sensor_type;location;lat;lon;timestamp;temperature;humidity
14101;DHT22;7127;49.372;8.166;2024-02-14T00:00:00;10.10;52.80
14101;DHT22;7127;49.372;8.166;2024-02-14T00:02:28;10.10;52.80
14101;DHT22;7127;49.372;8.166;2024-02-14T00:04:55;10.10;52.90
14101;DHT22;7127;49.372;8.166;2024-02-14T00:07:22;10.10;52.80
14101;DHT22;7127;49.372;8.166;2024-02-14T00:09:48;10.10;52.90
14101;DHT22;7127;49.372;8.166;2024-02-14T00:12:15;10.10;52.90
14101;DHT22;7127;49.372;8.166;2024-02-14T00:14:43;10.10;53.00
14101;DHT22;7127;49.372;8.166;2024-02-14T00:17:10;10.10;53.00
14101;DHT22;7127;49.372;8.166;2024-02-14T00:19:37;10.10;53.00
14101;DHT22;7127;49.372;8.166;2024-02-14T00:22:05;10.30;53.10
14101;DHT22;7127;49.372;8.166;2024-02-14T00:24:32;10.20;53.00
14101;DHT22;7127;49.372;8.166;2024-02-14T00:26:59;10.20;53.00
14101;DHT22;7127;49.372;8.166;2024-02-14T00:29:26;10.20;53.00
14101;DHT22;7127;49.372;8.166;2024-02-14T00:31:54;10.20;53.10
14101;DHT22;7127;49.372;8.166;2024-02-14T00:34:21;10.30;53.10
14101;DHT22;7127;49.372;8.166;2024-02-14T00:36:48;10.20;52.80
14101;DHT22;7127;49.372;8.166;2024-02-14T00:39:14;10.20;52.70
14101;DHT22;7127;49.372;8.166;2024-02-14T00:41:41;10.40;53.00
14101;DHT22;7127;49.372;8.166;2024-02-14T00:44:08;10.30;53.00
14101;DHT22;7127;49.372;8.166;2024-02-14T00:46:35;10.10;53.10
14101;DHT22;7127;49.372;8.166;2024-02-14T00:49:03;10.20;53.20
14101;DHT22;7127;49.372;8.166;2024-02-14T00:51:30;10.20;53.70
14101;DHT22;7127;49.372;8.166;2024-02-14T00:53:56;10.20;53.30
14101;DHT22;7127;49.372;8.166;2024-02-14T00:56:23;10.20;53.30
14101;DHT22;7127;49.372;8.166;2024-02-14T00:58:50;10.20;53.30
14101;DHT22;7127;49.372;8.166;2024-02-14T01:01:17;10.20;53.30
14101;DHT22;7127;49.372;8.166;2024-02-14T01:03:44;10.20;53.30
14101;DHT22;7127;49.372;8.166;2024-02-14T01:06:12;10.10;53.10
14101;DHT22;7127;49.372;8.166;2024-02-14T01:08:40;10.20;53.30
14101;DHT22;7127;49.372;8.166;2024-02-14T01:11:07;10.20;53.30
14101;DHT22;7127;49.372;8.166;2024-02-14T01:13:34;10.30;53.40
14101;DHT22;7127;49.372;8.166;2024-02-14T01:16:02;10.20;53.40
14101;DHT22;7127;49.372;8.166;2024-02-14T01:18:29;10.20;53.40
14101;DHT22;7127;49.372;8.166;2024-02-14T01:20:56;10.20;53.40
14101;DHT22;7127;49.372;8.166;2024-02-14T01:23:25;10.20;53.50
14101;DHT22;7127;49.372;8.166;2024-02-14T01:25:52;10.30;53.60
14101;DHT22;7127;49.372;8.166;2024-02-14T01:28:20;10.20;53.30
14101;DHT22;7127;49.372;8.166;2024-02-14T01:30:46;10.20;53.40
14101;DHT22;7127;49.372;8.166;2024-02-14T01:33:13;10.20;53.40
14101;DHT22;7127;49.372;8.166;2024-02-14T01:35:42;10.20;53.40
14101;DHT22;7127;49.372;8.166;2024-02-14T01:38:09;10.20;53.40
14101;DHT22;7127;49.372;8.166;2024-02-14T01:40:41;10.20;53.40
14101;DHT22;7127;49.372;8.166;2024-02-14T01:43:09;10.20;53.40
14101;DHT22;7127;49.372;8.166;2024-02-14T01:45:37;10.10;53.30
14101;DHT22;7127;49.372;8.166;2024-02-14T01:48:06;10.10;53.40
14101;DHT22;7127;49.372;8.166;2024-02-14T01:50:34;10.10;53.40
14101;DHT22;7127;49.372;8.166;2024-02-14T01:53:01;10.20;53.40
14101;DHT22;7127;49.372;8.166;2024-02-14T01:55:28;10.00;53.20
14101;DHT22;7127;49.372;8.166;2024-02-14T01:57:56;10.00;53.40
14101;DHT22;7127;49.372;8.166;2024-02-14T02:00:24;10.00;53.50
14101;DHT22;7127;49.372;8.166;2024-02-14T02:02:51;9.90;54.20
14101;DHT22;7127;49.372;8.166;2024-02-14T02:05:19;9.90;54.20
14101;DHT22;7127;49.372;8.166;2024-02-14T02:07:46;10.00;53.50
14101;DHT22;7127;49.372;8.166;2024-02-14T02:10:14;9.90;54.20
14101;DHT22;7127;49.372;8.166;2024-02-14T02:12:41;9.80;54.20
14101;DHT22;7127;49.372;8.166;2024-02-14T02:15:09;9.80;54.30
14101;DHT22;7127;49.372;8.166;2024-02-14T02:17:39;9.80;54.30
14101;DHT22;7127;49.372;8.166;2024-02-14T02:20:07;9.90;54.30
14101;DHT22;7127;49.372;8.166;2024-02-14T02:22:34;9.80;54.30
14101;DHT22;7127;49.372;8.166;2024-02-14T02:25:03;9.80;54.30
14101;DHT22;7127;49.372;8.166;2024-02-14T02:27:32;9.80;54.50
14101;DHT22;7127;49.372;8.166;2024-02-14T02:30:00;9.80;54.50
14101;DHT22;7127;49.372;8.166;2024-02-14T02:32:27;9.70;54.50
14101;DHT22;7127;49.372;8.166;2024-02-14T02:34:54;9.70;55.10
14101;DHT22;7127;49.372;8.166;2024-02-14T02:37:21;9.70;54.40
14101;DHT22;7127;49.372;8.166;2024-02-14T02:39:48;9.70;54.60
14101;DHT22;7127;49.372;8.166;2024-02-14T02:42:18;9.70;54.60
14101;DHT22;7127;49.372;8.166;2024-02-14T02:44:46;9.70;54.60
14101;DHT22;7127;49.372;8.166;2024-02-14T02:47:14;9.70;54.60
14101;DHT22;7127;49.372;8.166;2024-02-14T02:49:42;9.70;54.60
14101;DHT22;7127;49.372;8.166;2024-02-14T02:52:09;9.70;54.60
14101;DHT22;7127;49.372;8.166;2024-02-14T02:54:36;9.70;54.60
14101;DHT22;7127;49.372;8.166;2024-02-14T02:57:06;9.70;54.70
14101;DHT22;7127;49.372;8.166;2024-02-14T02:59:34;9.70;54.70
14101;DHT22;7127;49.372;8.166;2024-02-14T03:02:01;9.60;54.60
14101;DHT22;7127;49.372;8.166;2024-02-14T03:04:28;9.60;54.70
14101;DHT22;7127;49.372;8.166;2024-02-14T03:06:57;9.70;54.80
14101;DHT22;7127;49.372;8.166;2024-02-14T03:09:25;9.60;54.80
14101;DHT22;7127;49.372;8.166;2024-02-14T03:11:51;9.60;54.80
14101;DHT22;7127;49.372;8.166;2024-02-14T03:14:22;9.60;54.80
14101;DHT22;7127;49.372;8.166;2024-02-14T03:16:50;9.60;54.90
14101;DHT22;7127;49.372;8.166;2024-02-14T03:19:17;9.60;54.90
14101;DHT22;7127;49.372;8.166;2024-02-14T03:21:44;9.60;54.90
14101;DHT22;7127;49.372;8.166;2024-02-14T03:24:12;9.60;54.90
14101;DHT22;7127;49.372;8.166;2024-02-14T03:26:40;9.60;54.90
14101;DHT22;7127;49.372;8.166;2024-02-14T03:29:07;9.60;55.10
14101;DHT22;7127;49.372;8.166;2024-02-14T03:31:34;9.60;55.10
14101;DHT22;7127;49.372;8.166;2024-02-14T03:34:02;9.60;55.20
14101;DHT22;7127;49.372;8.166;2024-02-14T03:36:30;9.60;55.20
14101;DHT22;7127;49.372;8.166;2024-02-14T03:38:58;9.60;55.30
14101;DHT22;7127;49.372;8.166;2024-02-14T03:41:26;9.80;55.40
14101;DHT22;7127;49.372;8.166;2024-02-14T03:43:53;9.60;55.20
14101;DHT22;7127;49.372;8.166;2024-02-14T03:46:23;9.80;55.40
14101;DHT22;7127;49.372;8.166;2024-02-14T03:48:49;9.60;55.20
14101;DHT22;7127;49.372;8.166;2024-02-14T03:51:18;9.60;55.20
14101;DHT22;7127;49.372;8.166;2024-02-14T03:53:45;9.60;55.20
14101;DHT22;7127;49.372;8.166;2024-02-14T03:56:12;9.70;55.30
14101;DHT22;7127;49.372;8.166;2024-02-14T03:58:40;9.70;55.30
14101;DHT22;7127;49.372;8.166;2024-02-14T04:01:07;9.70;55.10
14101;DHT22;7127;49.372;8.166;2024-02-14T04:03:34;9.70;55.10
14101;DHT22;7127;49.372;8.166;2024-02-14T04:06:01;9.70;55.10
14101;DHT22;7127;49.372;8.166;2024-02-14T04:08:29;9.70;55.00
14101;DHT22;7127;49.372;8.166;2024-02-14T04:10:56;9.60;55.00
14101;DHT22;7127;49.372;8.166;2024-02-14T04:13:22;9.60;55.10
14101;DHT22;7127;49.372;8.166;2024-02-14T04:15:49;9.60;55.10
14101;DHT22;7127;49.372;8.166;2024-02-14T04:18:16;9.60;55.10
14101;DHT22;7127;49.372;8.166;2024-02-14T04:20:43;9.70;55.40
14101;DHT22;7127;49.372;8.166;2024-02-14T04:23:10;9.60;55.30
14101;DHT22;7127;49.372;8.166;2024-02-14T04:25:39;9.60;55.40
14101;DHT22;7127;49.372;8.166;2024-02-14T04:28:06;9.60;55.40
14101;DHT22;7127;49.372;8.166;2024-02-14T04:30:33;9.70;55.50
14101;DHT22;7127;49.372;8.166;2024-02-14T04:33:01;9.70;55.50
14101;DHT22;7127;49.372;8.166;2024-02-14T04:35:29;9.70;55.60
14101;DHT22;7127;49.372;8.166;2024-02-14T04:37:56;9.70;55.70
14101;DHT22;7127;49.372;8.166;2024-02-14T04:40:23;9.80;55.70
14101;DHT22;7127;49.372;8.166;2024-02-14T04:42:51;9.80;55.70
14101;DHT22;7127;49.372;8.166;2024-02-14T04:45:18;9.90;55.80
14101;DHT22;7127;49.372;8.166;2024-02-14T04:47:45;9.90;55.90
14101;DHT22;7127;49.372;8.166;2024-02-14T04:50:11;9.90;55.80
14101;DHT22;7127;49.372;8.166;2024-02-14T04:52:39;10.00;55.10
14101;DHT22;7127;49.372;8.166;2024-02-14T04:55:07;10.00;55.10
14101;DHT22;7127;49.372;8.166;2024-02-14T04:57:34;10.00;55.10
14101;DHT22;7127;49.372;8.166;2024-02-14T05:00:04;10.10;55.30
14101;DHT22;7127;49.372;8.166;2024-02-14T05:02:34;10.10;55.30
14101;DHT22;7127;49.372;8.166;2024-02-14T05:05:01;10.10;55.20
14101;DHT22;7127;49.372;8.166;2024-02-14T05:07:28;10.20;55.10
14101;DHT22;7127;49.372;8.166;2024-02-14T05:09:55;10.20;55.30
14101;DHT22;7127;49.372;8.166;2024-02-14T05:12:22;10.30;55.40
14101;DHT22;7127;49.372;8.166;2024-02-14T05:14:48;10.30;55.40
14101;DHT22;7127;49.372;8.166;2024-02-14T05:17:17;10.40;55.50
14101;DHT22;7127;49.372;8.166;2024-02-14T05:19:44;10.30;55.60
14101;DHT22;7127;49.372;8.166;2024-02-14T05:22:11;10.40;55.50
14101;DHT22;7127;49.372;8.166;2024-02-14T05:24:38;10.50;55.60
14101;DHT22;7127;49.372;8.166;2024-02-14T05:27:05;10.50;55.50
14101;DHT22;7127;49.372;8.166;2024-02-14T05:29:31;10.50;55.40
14101;DHT22;7127;49.372;8.166;2024-02-14T05:31:58;10.60;55.40
14101;DHT22;7127;49.372;8.166;2024-02-14T05:34:26;10.60;55.40
14101;DHT22;7127;49.372;8.166;2024-02-14T05:36:53;10.60;55.50
14101;DHT22;7127;49.372;8.166;2024-02-14T05:39:20;10.70;55.50
14101;DHT22;7127;49.372;8.166;2024-02-14T05:41:47;10.70;55.40
14101;DHT22;7127;49.372;8.166;2024-02-14T05:44:15;10.70;55.50
14101;DHT22;7127;49.372;8.166;2024-02-14T05:46:42;10.70;55.40
14101;DHT22;7127;49.372;8.166;2024-02-14T05:49:09;10.80;55.60
14101;DHT22;7127;49.372;8.166;2024-02-14T05:51:37;10.80;55.50
14101;DHT22;7127;49.372;8.166;2024-02-14T05:54:03;10.80;55.50
14101;DHT22;7127;49.372;8.166;2024-02-14T05:56:30;10.90;55.60
14101;DHT22;7127;49.372;8.166;2024-02-14T05:58:57;10.90;55.50
14101;DHT22;7127;49.372;8.166;2024-02-14T06:01:24;11.00;55.60
14101;DHT22;7127;49.372;8.166;2024-02-14T06:03:51;10.90;55.50
14101;DHT22;7127;49.372;8.166;2024-02-14T06:06:17;11.00;55.60
14101;DHT22;7127;49.372;8.166;2024-02-14T06:08:45;11.00;56.20
14101;DHT22;7127;49.372;8.166;2024-02-14T06:11:13;11.10;55.70
14101;DHT22;7127;49.372;8.166;2024-02-14T06:13:41;11.10;55.80
14101;DHT22;7127;49.372;8.166;2024-02-14T06:16:08;11.10;56.10
14101;DHT22;7127;49.372;8.166;2024-02-14T06:18:37;11.20;56.20
14101;DHT22;7127;49.372;8.166;2024-02-14T06:21:05;11.20;56.40
14101;DHT22;7127;49.372;8.166;2024-02-14T06:23:31;11.20;56.20
14101;DHT22;7127;49.372;8.166;2024-02-14T06:25:59;11.30;56.30
14101;DHT22;7127;49.372;8.166;2024-02-14T06:28:26;11.30;56.60
14101;DHT22;7127;49.372;8.166;2024-02-14T06:30:53;11.30;56.50
14101;DHT22;7127;49.372;8.166;2024-02-14T06:33:20;11.30;56.40
14101;DHT22;7127;49.372;8.166;2024-02-14T06:35:47;11.40;56.60
14101;DHT22;7127;49.372;8.166;2024-02-14T06:38:13;11.40;56.60
14101;DHT22;7127;49.372;8.166;2024-02-14T06:40:41;11.40;56.70
14101;DHT22;7127;49.372;8.166;2024-02-14T06:43:10;11.50;56.90
14101;DHT22;7127;49.372;8.166;2024-02-14T06:45:38;11.50;56.90
14101;DHT22;7127;49.372;8.166;2024-02-14T06:48:05;11.50;56.90
14101;DHT22;7127;49.372;8.166;2024-02-14T06:50:33;11.50;56.90
14101;DHT22;7127;49.372;8.166;2024-02-14T06:53:00;11.60;57.10
14101;DHT22;7127;49.372;8.166;2024-02-14T06:55:28;11.60;56.80
14101;DHT22;7127;49.372;8.166;2024-02-14T06:57:55;11.60;56.90
14101;DHT22;7127;49.372;8.166;2024-02-14T07:00:24;11.70;56.90
14101;DHT22;7127;49.372;8.166;2024-02-14T07:02:51;11.70;56.90
14101;DHT22;7127;49.372;8.166;2024-02-14T07:05:18;11.70;56.90
14101;DHT22;7127;49.372;8.166;2024-02-14T07:07:45;11.70;56.90
14101;DHT22;7127;49.372;8.166;2024-02-14T07:10:12;11.80;56.90
14101;DHT22;7127;49.372;8.166;2024-02-14T07:12:39;11.80;57.10
14101;DHT22;7127;49.372;8.166;2024-02-14T07:15:06;11.70;57.00
14101;DHT22;7127;49.372;8.166;2024-02-14T07:17:35;11.80;57.10
14101;DHT22;7127;49.372;8.166;2024-02-14T07:20:02;11.80;57.10
14101;DHT22;7127;49.372;8.166;2024-02-14T07:22:29;11.90;57.20
14101;DHT22;7127;49.372;8.166;2024-02-14T07:24:56;11.90;57.20
14101;DHT22;7127;49.372;8.166;2024-02-14T07:27:23;12.00;57.20
14101;DHT22;7127;49.372;8.166;2024-02-14T07:33:09;12.00;57.30
14101;DHT22;7127;49.372;8.166;2024-02-14T07:36:24;12.00;57.20
14101;DHT22;7127;49.372;8.166;2024-02-14T07:39:14;12.10;57.30
14101;DHT22;7127;49.372;8.166;2024-02-14T07:41:43;12.10;57.20
14101;DHT22;7127;49.372;8.166;2024-02-14T07:44:36;12.30;57.40
14101;DHT22;7127;49.372;8.166;2024-02-14T07:47:14;12.30;57.50
14101;DHT22;7127;49.372;8.166;2024-02-14T07:49:43;12.20;57.30
14101;DHT22;7127;49.372;8.166;2024-02-14T07:52:10;12.30;57.40
14101;DHT22;7127;49.372;8.166;2024-02-14T07:54:37;12.30;57.30
14101;DHT22;7127;49.372;8.166;2024-02-14T07:57:07;12.30;57.40
14101;DHT22;7127;49.372;8.166;2024-02-14T07:59:33;12.20;57.30
14101;DHT22;7127;49.372;8.166;2024-02-14T08:02:00;12.40;57.40
14101;DHT22;7127;49.372;8.166;2024-02-14T08:04:28;12.40;57.40
14101;DHT22;7127;49.372;8.166;2024-02-14T08:06:56;12.40;57.40
14101;DHT22;7127;49.372;8.166;2024-02-14T08:09:23;12.50;57.60
14101;DHT22;7127;49.372;8.166;2024-02-14T08:11:49;12.50;57.70
14101;DHT22;7127;49.372;8.166;2024-02-14T08:14:18;12.50;57.70
14101;DHT22;7127;49.372;8.166;2024-02-14T08:16:45;12.60;58.30
14101;DHT22;7127;49.372;8.166;2024-02-14T08:19:12;12.60;57.70
14101;DHT22;7127;49.372;8.166;2024-02-14T08:21:39;12.70;57.80
14101;DHT22;7127;49.372;8.166;2024-02-14T08:24:08;12.70;57.80
14101;DHT22;7127;49.372;8.166;2024-02-14T08:26:35;12.80;57.80
14101;DHT22;7127;49.372;8.166;2024-02-14T08:29:02;12.80;57.80
14101;DHT22;7127;49.372;8.166;2024-02-14T08:31:29;12.80;57.80
14101;DHT22;7127;49.372;8.166;2024-02-14T08:33:56;12.90;57.80
14101;DHT22;7127;49.372;8.166;2024-02-14T08:36:23;13.00;57.90
14101;DHT22;7127;49.372;8.166;2024-02-14T08:38:49;13.00;57.80
14101;DHT22;7127;49.372;8.166;2024-02-14T08:41:18;13.00;57.80
14101;DHT22;7127;49.372;8.166;2024-02-14T08:43:44;13.10;58.10
14101;DHT22;7127;49.372;8.166;2024-02-14T08:46:11;13.10;57.90
14101;DHT22;7127;49.372;8.166;2024-02-14T08:48:38;13.10;57.90
14101;DHT22;7127;49.372;8.166;2024-02-14T08:51:07;13.20;58.00
14101;DHT22;7127;49.372;8.166;2024-02-14T08:53:34;13.30;58.00
14101;DHT22;7127;49.372;8.166;2024-02-14T08:56:02;13.30;57.90
14101;DHT22;7127;49.372;8.166;2024-02-14T08:58:30;13.40;58.00
14101;DHT22;7127;49.372;8.166;2024-02-14T09:00:56;13.40;57.90
14101;DHT22;7127;49.372;8.166;2024-02-14T09:03:23;13.40;57.90
14101;DHT22;7127;49.372;8.166;2024-02-14T09:05:50;13.50;58.00
14101;DHT22;7127;49.372;8.166;2024-02-14T09:08:18;13.40;57.90
14101;DHT22;7127;49.372;8.166;2024-02-14T09:10:46;13.60;58.00
14101;DHT22;7127;49.372;8.166;2024-02-14T09:13:13;13.60;57.90
14101;DHT22;7127;49.372;8.166;2024-02-14T09:15:43;13.70;57.90
14101;DHT22;7127;49.372;8.166;2024-02-14T09:18:09;13.80;57.90
14101;DHT22;7127;49.372;8.166;2024-02-14T09:20:36;13.80;57.80
14101;DHT22;7127;49.372;8.166;2024-02-14T09:23:04;13.80;57.80
14101;DHT22;7127;49.372;8.166;2024-02-14T09:25:31;13.90;57.80
14101;DHT22;7127;49.372;8.166;2024-02-14T09:27:57;13.90;57.80
14101;DHT22;7127;49.372;8.166;2024-02-14T09:30:24;13.90;57.70
14101;DHT22;7127;49.372;8.166;2024-02-14T09:32:52;13.90;57.60
14101;DHT22;7127;49.372;8.166;2024-02-14T09:35:19;14.00;57.60
14101;DHT22;7127;49.372;8.166;2024-02-14T09:37:46;14.00;57.60
14101;DHT22;7127;49.372;8.166;2024-02-14T09:40:13;14.10;57.70
14101;DHT22;7127;49.372;8.166;2024-02-14T09:42:46;14.10;57.70
14101;DHT22;7127;49.372;8.166;2024-02-14T09:45:17;14.10;57.70
14101;DHT22;7127;49.372;8.166;2024-02-14T09:47:45;14.10;57.70
14101;DHT22;7127;49.372;8.166;2024-02-14T09:50:14;14.20;57.70
14101;DHT22;7127;49.372;8.166;2024-02-14T09:52:42;14.20;57.70
14101;DHT22;7127;49.372;8.166;2024-02-14T09:55:09;14.20;57.80
14101;DHT22;7127;49.372;8.166;2024-02-14T09:57:40;14.30;58.00
14101;DHT22;7127;49.372;8.166;2024-02-14T10:00:09;14.30;58.00
14101;DHT22;7127;49.372;8.166;2024-02-14T10:02:36;14.40;58.00
14101;DHT22;7127;49.372;8.166;2024-02-14T10:05:04;14.40;58.00
14101;DHT22;7127;49.372;8.166;2024-02-14T10:07:39;14.50;57.90
14101;DHT22;7127;49.372;8.166;2024-02-14T10:10:07;14.70;58.00
14101;DHT22;7127;49.372;8.166;2024-02-14T10:12:34;14.60;57.80
14101;DHT22;7127;49.372;8.166;2024-02-14T10:15:00;14.60;57.60
14101;DHT22;7127;49.372;8.166;2024-02-14T10:17:28;14.70;57.60
14101;DHT22;7127;49.372;8.166;2024-02-14T10:19:56;14.70;57.60
14101;DHT22;7127;49.372;8.166;2024-02-14T10:22:22;14.70;57.50
14101;DHT22;7127;49.372;8.166;2024-02-14T10:24:52;14.80;57.30
14101;DHT22;7127;49.372;8.166;2024-02-14T10:27:20;14.80;57.30
14101;DHT22;7127;49.372;8.166;2024-02-14T10:29:47;14.80;57.30
14101;DHT22;7127;49.372;8.166;2024-02-14T10:32:15;14.70;57.30
14101;DHT22;7127;49.372;8.166;2024-02-14T10:34:43;14.80;57.40
14101;DHT22;7127;49.372;8.166;2024-02-14T10:37:13;14.80;57.40
14101;DHT22;7127;49.372;8.166;2024-02-14T10:39:42;14.80;57.40
14101;DHT22;7127;49.372;8.166;2024-02-14T10:42:11;14.80;57.40
14101;DHT22;7127;49.372;8.166;2024-02-14T10:44:38;14.90;57.50
14101;DHT22;7127;49.372;8.166;2024-02-14T10:47:08;14.90;57.50
14101;DHT22;7127;49.372;8.166;2024-02-14T10:49:37;14.90;57.50
14101;DHT22;7127;49.372;8.166;2024-02-14T10:52:06;14.90;57.50
14101;DHT22;7127;49.372;8.166;2024-02-14T10:54:35;14.90;57.40
14101;DHT22;7127;49.372;8.166;2024-02-14T10:57:05;15.00;57.50
14101;DHT22;7127;49.372;8.166;2024-02-14T10:59:40;15.00;57.50
14101;DHT22;7127;49.372;8.166;2024-02-14T11:02:08;15.10;57.60
14101;DHT22;7127;49.372;8.166;2024-02-14T11:04:36;15.10;57.60
14101;DHT22;7127;49.372;8.166;2024-02-14T11:07:03;15.10;57.60
14101;DHT22;7127;49.372;8.166;2024-02-14T11:09:36;15.10;57.40
14101;DHT22;7127;49.372;8.166;2024-02-14T11:12:04;15.20;57.40
14101;DHT22;7127;49.372;8.166;2024-02-14T11:14:34;15.20;57.40
14101;DHT22;7127;49.372;8.166;2024-02-14T11:17:03;15.20;57.40
14101;DHT22;7127;49.372;8.166;2024-02-14T11:19:35;15.20;57.20
14101;DHT22;7127;49.372;8.166;2024-02-14T11:22:10;15.20;57.20
14101;DHT22;7127;49.372;8.166;2024-02-14T11:24:38;15.20;57.20
14101;DHT22;7127;49.372;8.166;2024-02-14T11:27:10;15.30;57.30
14101;DHT22;7127;49.372;8.166;2024-02-14T11:29:38;15.30;57.30
14101;DHT22;7127;49.372;8.166;2024-02-14T11:32:07;15.30;57.30
14101;DHT22;7127;49.372;8.166;2024-02-14T11:34:35;15.30;57.40
14101;DHT22;7127;49.372;8.166;2024-02-14T11:37:02;15.30;57.30
14101;DHT22;7127;49.372;8.166;2024-02-14T11:39:29;15.30;57.40
14101;DHT22;7127;49.372;8.166;2024-02-14T11:41:58;15.40;57.50
14101;DHT22;7127;49.372;8.166;2024-02-14T11:44:25;15.50;57.60
14101;DHT22;7127;49.372;8.166;2024-02-14T11:46:52;15.40;57.70
14101;DHT22;7127;49.372;8.166;2024-02-14T11:49:22;15.50;57.80
14101;DHT22;7127;49.372;8.166;2024-02-14T11:51:48;15.60;57.80
14101;DHT22;7127;49.372;8.166;2024-02-14T11:54:15;15.60;57.70
14101;DHT22;7127;49.372;8.166;2024-02-14T11:56:43;15.60;57.60
14101;DHT22;7127;49.372;8.166;2024-02-14T11:59:10;15.70;57.60
14101;DHT22;7127;49.372;8.166;2024-02-14T12:01:38;15.80;57.60
14101;DHT22;7127;49.372;8.166;2024-02-14T12:04:07;15.80;57.60
14101;DHT22;7127;49.372;8.166;2024-02-14T12:06:40;15.90;57.50
14101;DHT22;7127;49.372;8.166;2024-02-14T12:09:08;16.00;57.50
14101;DHT22;7127;49.372;8.166;2024-02-14T12:11:35;16.00;57.40
14101;DHT22;7127;49.372;8.166;2024-02-14T12:14:03;16.10;57.40
14101;DHT22;7127;49.372;8.166;2024-02-14T12:16:31;16.10;57.20
14101;DHT22;7127;49.372;8.166;2024-02-14T12:19:04;16.10;57.20
14101;DHT22;7127;49.372;8.166;2024-02-14T12:21:36;16.10;57.10
14101;DHT22;7127;49.372;8.166;2024-02-14T12:24:04;16.20;57.20
14101;DHT22;7127;49.372;8.166;2024-02-14T12:26:31;16.20;57.20
14101;DHT22;7127;49.372;8.166;2024-02-14T12:29:00;16.20;57.30
14101;DHT22;7127;49.372;8.166;2024-02-14T12:31:27;16.20;57.20
14101;DHT22;7127;49.372;8.166;2024-02-14T12:33:56;16.30;57.30
14101;DHT22;7127;49.372;8.166;2024-02-14T12:36:25;16.40;57.30
14101;DHT22;7127;49.372;8.166;2024-02-14T12:38:53;16.30;57.20
14101;DHT22;7127;49.372;8.166;2024-02-14T12:41:21;16.40;57.20
14101;DHT22;7127;49.372;8.166;2024-02-14T12:43:48;16.50;57.20
14101;DHT22;7127;49.372;8.166;2024-02-14T12:46:15;16.50;57.10
14101;DHT22;7127;49.372;8.166;2024-02-14T12:48:42;16.60;57.20
14101;DHT22;7127;49.372;8.166;2024-02-14T12:51:10;16.60;57.00
14101;DHT22;7127;49.372;8.166;2024-02-14T12:53:36;16.70;57.10
14101;DHT22;7127;49.372;8.166;2024-02-14T12:56:06;16.70;56.80
14101;DHT22;7127;49.372;8.166;2024-02-14T12:58:33;16.70;56.80
14101;DHT22;7127;49.372;8.166;2024-02-14T13:01:01;16.70;56.80
14101;DHT22;7127;49.372;8.166;2024-02-14T13:03:31;16.70;56.70
14101;DHT22;7127;49.372;8.166;2024-02-14T13:05:58;16.70;56.60
14101;DHT22;7127;49.372;8.166;2024-02-14T13:08:25;16.70;56.50
14101;DHT22;7127;49.372;8.166;2024-02-14T13:10:52;16.70;56.50
14101;DHT22;7127;49.372;8.166;2024-02-14T13:13:21;16.70;56.50
14101;DHT22;7127;49.372;8.166;2024-02-14T13:15:47;16.70;56.50
14101;DHT22;7127;49.372;8.166;2024-02-14T13:18:14;16.70;56.50
14101;DHT22;7127;49.372;8.166;2024-02-14T13:20:42;16.70;56.60
14101;DHT22;7127;49.372;8.166;2024-02-14T13:23:09;16.70;56.70
14101;DHT22;7127;49.372;8.166;2024-02-14T13:25:36;16.70;56.80
14101;DHT22;7127;49.372;8.166;2024-02-14T13:28:04;16.70;56.80
14101;DHT22;7127;49.372;8.166;2024-02-14T13:30:32;16.70;56.90
14101;DHT22;7127;49.372;8.166;2024-02-14T13:32:59;16.80;56.90
14101;DHT22;7127;49.372;8.166;2024-02-14T13:35:26;16.80;56.80
14101;DHT22;7127;49.372;8.166;2024-02-14T13:37:53;16.90;56.80
14101;DHT22;7127;49.372;8.166;2024-02-14T13:40:20;16.80;56.70
14101;DHT22;7127;49.372;8.166;2024-02-14T13:42:46;16.90;56.80
14101;DHT22;7127;49.372;8.166;2024-02-14T13:45:13;16.90;56.70
14101;DHT22;7127;49.372;8.166;2024-02-14T13:47:43;16.90;56.70
14101;DHT22;7127;49.372;8.166;2024-02-14T13:50:10;16.90;56.70
14101;DHT22;7127;49.372;8.166;2024-02-14T13:52:38;16.80;56.50
14101;DHT22;7127;49.372;8.166;2024-02-14T13:55:05;16.90;56.60
14101;DHT22;7127;49.372;8.166;2024-02-14T13:57:35;16.90;56.60
14101;DHT22;7127;49.372;8.166;2024-02-14T14:00:04;16.90;56.60
14101;DHT22;7127;49.372;8.166;2024-02-14T14:02:31;16.90;56.60
14101;DHT22;7127;49.372;8.166;2024-02-14T14:04:59;17.00;56.70
14101;DHT22;7127;49.372;8.166;2024-02-14T14:07:26;17.00;56.70
14101;DHT22;7127;49.372;8.166;2024-02-14T14:09:53;17.00;56.70
14101;DHT22;7127;49.372;8.166;2024-02-14T14:12:19;17.00;56.70
14101;DHT22;7127;49.372;8.166;2024-02-14T14:14:46;17.00;56.70
14101;DHT22;7127;49.372;8.166;2024-02-14T14:17:13;17.00;56.70
14101;DHT22;7127;49.372;8.166;2024-02-14T14:19:40;17.00;56.70
14101;DHT22;7127;49.372;8.166;2024-02-14T14:22:08;17.00;56.60
14101;DHT22;7127;49.372;8.166;2024-02-14T14:24:36;17.00;56.60
14101;DHT22;7127;49.372;8.166;2024-02-14T14:27:03;17.00;56.60
14101;DHT22;7127;49.372;8.166;2024-02-14T14:29:32;17.00;56.60
14101;DHT22;7127;49.372;8.166;2024-02-14T14:31:59;17.00;56.70
14101;DHT22;7127;49.372;8.166;2024-02-14T14:34:26;17.00;56.80
14101;DHT22;7127;49.372;8.166;2024-02-14T14:36:55;17.00;56.80
14101;DHT22;7127;49.372;8.166;2024-02-14T14:39:23;17.00;56.90
14101;DHT22;7127;49.372;8.166;2024-02-14T14:41:50;16.90;56.80
14101;DHT22;7127;49.372;8.166;2024-02-14T14:44:18;17.00;56.90
14101;DHT22;7127;49.372;8.166;2024-02-14T14:46:45;17.00;57.00
14101;DHT22;7127;49.372;8.166;2024-02-14T14:49:13;17.00;57.00
14101;DHT22;7127;49.372;8.166;2024-02-14T14:55:17;17.10;57.10
14101;DHT22;7127;49.372;8.166;2024-02-14T14:57:44;17.00;56.90
14101;DHT22;7127;49.372;8.166;2024-02-14T15:00:13;17.00;56.90
14101;DHT22;7127;49.372;8.166;2024-02-14T15:02:40;17.00;57.00
14101;DHT22;7127;49.372;8.166;2024-02-14T15:05:08;17.00;57.00
14101;DHT22;7127;49.372;8.166;2024-02-14T15:07:35;17.00;57.00
14101;DHT22;7127;49.372;8.166;2024-02-14T15:10:02;17.00;57.00
14101;DHT22;7127;49.372;8.166;2024-02-14T15:12:31;16.90;56.90
14101;DHT22;7127;49.372;8.166;2024-02-14T15:15:00;16.90;56.90
14101;DHT22;7127;49.372;8.166;2024-02-14T15:17:28;16.90;56.90
14101;DHT22;7127;49.372;8.166;2024-02-14T15:19:55;16.90;57.00
14101;DHT22;7127;49.372;8.166;2024-02-14T15:22:22;16.90;57.00
14101;DHT22;7127;49.372;8.166;2024-02-14T15:24:50;16.80;57.00
14101;DHT22;7127;49.372;8.166;2024-02-14T15:27:17;16.80;57.10
14101;DHT22;7127;49.372;8.166;2024-02-14T15:29:50;16.80;57.10
14101;DHT22;7127;49.372;8.166;2024-02-14T15:32:34;16.80;57.10
14101;DHT22;7127;49.372;8.166;2024-02-14T15:35:18;16.80;57.10
14101;DHT22;7127;49.372;8.166;2024-02-14T15:37:45;16.70;57.20
14101;DHT22;7127;49.372;8.166;2024-02-14T15:40:14;16.70;57.20
14101;DHT22;7127;49.372;8.166;2024-02-14T15:42:41;16.70;57.30
14101;DHT22;7127;49.372;8.166;2024-02-14T15:45:10;16.70;57.40
14101;DHT22;7127;49.372;8.166;2024-02-14T15:47:41;16.60;57.30
14101;DHT22;7127;49.372;8.166;2024-02-14T15:50:08;16.60;57.30
14101;DHT22;7127;49.372;8.166;2024-02-14T15:52:35;16.60;57.30
14101;DHT22;7127;49.372;8.166;2024-02-14T15:55:03;16.50;57.20
14101;DHT22;7127;49.372;8.166;2024-02-14T15:57:30;16.50;57.30
14101;DHT22;7127;49.372;8.166;2024-02-14T15:59:57;16.50;57.30